Jackson County Reynolds Field
KJXN : rendu visible

Aérodrome :











RETROUVEZ-NOUS SUR...

 
LOGIN :

S'inscrire | Disclaimer

   EN    FR    IT 

 









Légende :    VFR   VFR Marginal   IFR   IFR Intensif   IFR Très Intensif
Visi : 
Plafond : 
>= 8 km
>= 3000ft
5 à 8 km
1000 à 3000 ft
1500m à 5 km
500 à 1000 ft
800 à 1500m
200 à 500 ft
< 800m
< 200 ft
Symboles :   Orages  Brouillard  Fortes neiges  Fortes précipitations  Vent > 20 kt






- Altitude de l'aérodrome : 1001 ft


KJXN - Jackson County Reynolds Field

DERNIER METAR :
  • 190256Z AUTO 24020G32KT 4SM -SN OVC018 M04/M08 A2974 RMK AO2 PK WND 24033/0237 SLP083 P0000 60000 T10441078 51024

METARs EXPIRÉS :
  • 190240Z AUTO 23019G33KT 4SM -SN OVC017 M04/M07 A2974 RMK AO2 PK WND 24033/0237 P0000 T10441072
  • 190226Z AUTO 23018G28KT 2SM -SN OVC014 M04/M07 A2972 RMK AO2 PK WND 23028/0212 P0000 T10391067
  • 190217Z AUTO 24017G28KT 1 3/4SM -SN BR OVC014 M03/M06 A2972 RMK AO2 PK WND 23028/0212 P0000 T10331056
  • 190156Z 24017G27KT 2SM -SN OVC014 M02/M05 A2971 RMK AO2 PK WND 25039/0143 SLP072 P0000 T10221050
  • 190151Z 24019G39KT 2SM -SN OVC014 M02/M05 A2971 RMK AO2 PK WND 25039/0143 P0000
  • 190115Z 24020G29KT 1 3/4SM -SN BR OVC014 M01/M03 A2968 RMK AO2 PK WND 22032/0101 P0000 T10061028
  • 190104Z 23020G32KT 2 1/2SM -SN OVC015 01/M02 A2967 RMK AO2 PK WND 22032/0101 P0000 T00061022
  • 190056Z 24014G27KT 3SM -SN OVC015 01/M02 A2967 RMK AO2 PK WND 25031/0044 SNB36 SLP056 P0000 T00061022
  • 182356Z 24017G26KT 9SM OVC017 01/M02 A2965 RMK AO2 PK WND 24033/2328 SLP051 60002 T00111022 10039 20011 53016

TAF KJXN
Valide du 19 à 01h jusqu'au 20 à 00h UTC


190120Z 1901/1924 26015G25KT 1 1/2SM -SHSN OVC014
FM191300 27013G23KT 3SM -SHSN OVC018
FM191800 30010G18KT P6SM VCSH OVC015
FM192200 32008KT P6SM BKN025



MET'MAP, la Météo Aéronautique d'un coup d'oeil ! - Copyright ORBIFLY Décembre 2007 - Disclaimer

ORBIFLY MET'MAP TEAM :

Programmation & Développement : Alexandra Zaïnal
Sur une idée originale de : Baudouin d'Aumeries
Assistance à la programmation : Marc-Olivier Méhu
Soutien technique & logistique : Manuel Goepfert

Contact : metmap@orbifly.com




SOURCES & CREDITS :

   NOAA       Earth
Advisory